Wellsville, NY

4:10 AM EDT on August 21, 2019 (GMT -0400)
Wellsville Municipal-Tarantine

Weather History for KELZ - July, 2019

Change the Weather History Date:

Monday, July 22, 2019

  Actual Average (KDSV) Record (KDSV)
Temperature  
Mean Temperature 62 °F -  
Max Temperature 66 °F 82 °F 100 °F (1955)
Min Temperature 59 °F 56 °F 45 °F (1965)
Degree Days  
Heating Degree Days 4    
Growing Degree Days 12 (Base 50)    
Moisture  
Dew Point 61 °F    
Average Humidity 98    
Maximum Humidity 100    
Minimum Humidity 90    
Precipitation  
Precipitation 1.40 in - - ()
Sea Level Pressure  
Sea Level Pressure 29.92 in    
Wind  
Wind Speed 4 mph (North)    
Max Wind Speed 10 mph    
Max Gust Speed -    
Visibility 4 miles    
Events Fog , Rain    
Averages and records for this station are not official NWS values.
T = Trace of Precipitation, MM = Missing Value Source: NWS Daily Summary

Daily Weather History Graph

Daily Weather History Graph

Search for Another Location

Airport or City:

Astronomy

Jul. 22, 2019 Rise Set
Actual Time 5:55 AM EDT 8:41 PM EDT
Civil Twilight 5:22 AM EDT 9:13 PM EDT
Nautical Twilight 4:41 AM EDT 9:54 PM EDT
Astronomical Twilight 3:53 AM EDT 10:41 PM EDT
Moon 11:55 PM EDT (7/22) 11:15 AM EDT (7/22)
Length of Visible Light 15h 51m
Length of Day
14h 45m
Waning Gibbous, 72% of the Moon is Illuminated
Jul 22
Waning Gibbous
Jul 24
Last Quarter
Jul 31
New
Aug 7
First Quarter
Aug 15
Full

Hourly Weather History & Observations

Time (EDT) Temp. Dew Point Humidity Pressure Visibility Wind Dir Wind Speed Gust Speed Precip Events Conditions
12:56 AM 64.0 °F 61.0 °F 90% 29.95 in 10.0 mi Calm Calm - N/A   Partly Cloudy
1:56 AM 64.0 °F 62.1 °F 93% 29.95 in 10.0 mi Calm Calm - N/A   Overcast
2:56 AM 63.0 °F 62.1 °F 97% 29.91 in 5.0 mi ENE 3.5 mph - N/A   Mostly Cloudy
3:10 AM 62.1 °F 62.1 °F 100% 29.95 in 1.5 mi ESE 4.6 mph - N/A   Overcast
3:14 AM 62.1 °F 62.1 °F 100% 29.95 in 0.8 mi East 3.5 mph - N/A   Overcast
3:23 AM 62.1 °F 62.1 °F 100% 29.96 in 2.0 mi Calm Calm - N/A   Mostly Cloudy
3:25 AM 62.1 °F 62.1 °F 100% 29.96 in 3.0 mi Calm Calm - N/A   Mostly Cloudy
3:56 AM 62.1 °F 62.1 °F 100% 29.91 in 8.0 mi Calm Calm - N/A   Partly Cloudy
4:56 AM 63.0 °F 62.1 °F 97% 29.91 in 10.0 mi Calm Calm - N/A   Scattered Clouds
5:06 AM 63.0 °F 62.1 °F 97% 29.95 in 10.0 mi WNW 3.5 mph - N/A   Mostly Cloudy
5:56 AM 64.0 °F 62.1 °F 93% 29.91 in 10.0 mi Calm Calm - N/A   Overcast
6:10 AM 63.0 °F 62.1 °F 97% 29.94 in 10.0 mi Calm Calm - N/A   Overcast
6:56 AM 64.0 °F 61.0 °F 90% 29.91 in 10.0 mi North 3.5 mph - N/A   Overcast
7:13 AM 63.0 °F 62.1 °F 97% 29.94 in 1.8 mi NNW 5.8 mph - 0.03 in Rain Light Rain
7:22 AM 62.1 °F 62.1 °F 100% 29.94 in 0.5 mi North 5.8 mph - 0.13 in Fog , Rain Heavy Rain
7:28 AM 62.1 °F 62.1 °F 100% 29.94 in 1.0 mi NNW 5.8 mph - 0.14 in Rain Light Rain
7:37 AM 62.1 °F 62.1 °F 100% 29.95 in 2.5 mi NNW 9.2 mph - 0.14 in Rain Light Rain
7:45 AM 62.1 °F 62.1 °F 100% 29.96 in 3.0 mi NNW 10.4 mph - 0.15 in Rain Light Rain
7:50 AM 62.6 °F 60.8 °F 94% 29.96 in 2.5 mi NNW 10.4 mph - 0.16 in Rain Light Rain
7:56 AM 61.0 °F 61.0 °F 100% 29.93 in 2.0 mi NNW 9.2 mph - 0.18 in Rain Rain
8:03 AM 61.0 °F 60.1 °F 97% 29.95 in 1.2 mi North 8.1 mph - 0.03 in Rain Heavy Rain
8:20 AM 60.1 °F 60.1 °F 100% 29.96 in 0.5 mi NNE 5.8 mph - 0.20 in Fog , Rain Heavy Rain
8:34 AM 60.1 °F 60.1 °F 100% 29.95 in 0.2 mi North 5.8 mph - 0.35 in Fog , Rain Rain
8:53 AM 60.8 °F 60.8 °F 100% 29.95 in 0.2 mi North 5.8 mph - 0.37 in Fog , Rain Light Rain
8:56 AM 60.1 °F 60.1 °F 100% 29.92 in 0.2 mi North 4.6 mph - 0.38 in Fog , Rain Rain
9:11 AM 60.1 °F 60.1 °F 100% 29.94 in 0.8 mi North 4.6 mph - 0.03 in Rain Rain
9:22 AM 60.1 °F 60.1 °F 100% 29.94 in 1.8 mi NNE 5.8 mph - 0.05 in Rain Rain
9:56 AM 60.1 °F 60.1 °F 100% 29.92 in 1.2 mi North 3.5 mph - 0.10 in Rain Light Rain
10:01 AM 60.1 °F 60.1 °F 100% 29.94 in 3.0 mi Calm Calm - 0.00 in Rain Light Rain
10:09 AM 61.0 °F 61.0 °F 100% 29.94 in 2.0 mi ENE 3.5 mph - 0.01 in Rain Light Rain
10:28 AM 60.1 °F 60.1 °F 100% 29.93 in 0.2 mi NE 4.6 mph - 0.02 in Fog , Rain Light Rain
10:43 AM 61.0 °F 61.0 °F 100% 29.94 in 0.8 mi NNE 3.5 mph - 0.08 in Rain Heavy Rain
10:54 AM 60.8 °F 60.8 °F 100% 29.94 in 1.5 mi North 5.8 mph - 0.10 in Rain Light Rain
10:56 AM 60.1 °F 60.1 °F 100% 29.92 in 1.5 mi North 6.9 mph - 0.10 in Rain Light Rain
11:04 AM 60.1 °F 60.1 °F 100% 29.94 in 2.0 mi North 8.1 mph - 0.01 in Rain Light Rain
11:13 AM 61.0 °F 60.1 °F 97% 29.94 in 1.8 mi NNE 8.1 mph - 0.02 in Rain Light Rain
11:18 AM 61.0 °F 60.1 °F 97% 29.94 in 3.0 mi NNE 5.8 mph - 0.02 in Rain Light Rain
11:27 AM 61.0 °F 60.1 °F 97% 29.94 in 2.5 mi North 5.8 mph - 0.02 in Rain Light Rain
11:35 AM 60.1 °F 60.1 °F 100% 29.94 in 1.0 mi North 4.6 mph - 0.04 in Rain Rain
11:39 AM 60.1 °F 60.1 °F 100% 29.94 in 0.8 mi North 6.9 mph - 0.06 in Rain Rain
11:47 AM 60.1 °F 60.1 °F 100% 29.94 in 1.0 mi North 5.8 mph - 0.10 in Rain Heavy Rain
11:56 AM 60.1 °F 60.1 °F 100% 29.91 in 1.0 mi NNE 4.6 mph - 0.11 in Rain Rain
12:10 PM 61.0 °F 61.0 °F 100% 29.93 in 0.5 mi NNE 6.9 mph - 0.02 in Fog , Rain Light Rain
12:21 PM 61.0 °F 61.0 °F 100% 29.92 in 2.0 mi NNE 8.1 mph - 0.03 in Rain Light Rain
12:27 PM 61.0 °F 61.0 °F 100% 29.93 in 0.8 mi NE 6.9 mph - 0.03 in Rain Light Rain
12:56 PM 61.0 °F 61.0 °F 100% 29.91 in 1.0 mi North 5.8 mph - 0.18 in Rain Rain
1:08 PM 61.0 °F 61.0 °F 100% 29.93 in 3.0 mi NNE 4.6 mph - 0.01 in Rain Light Rain
1:18 PM 61.0 °F 60.1 °F 97% 29.93 in 1.8 mi Variable 6.9 mph - 0.02 in Rain Light Rain
1:37 PM 60.1 °F 60.1 °F 100% 29.92 in 0.5 mi NNE 8.1 mph - 0.09 in Fog , Rain Heavy Rain
1:56 PM 60.1 °F 60.1 °F 100% 29.91 in 0.8 mi North 9.2 mph - 0.18 in Rain Rain
2:02 PM 60.1 °F 60.1 °F 100% 29.92 in 1.0 mi NNE 8.1 mph - 0.01 in Rain Rain
2:10 PM 60.1 °F 60.1 °F 100% 29.92 in 2.0 mi NNE 6.9 mph - 0.02 in Rain Light Rain
2:28 PM 60.1 °F 60.1 °F 100% 29.91 in 1.0 mi NE 5.8 mph - 0.09 in Rain Heavy Rain
2:43 PM 60.1 °F 60.1 °F 100% 29.91 in 2.5 mi NE 5.8 mph - 0.13 in Rain Light Rain
2:48 PM 61.0 °F 60.1 °F 97% 29.91 in 4.0 mi NE 5.8 mph - 0.13 in Rain Light Rain
2:56 PM 60.1 °F 60.1 °F 100% 29.89 in 5.0 mi NE 8.1 mph - 0.14 in Rain Light Rain
3:07 PM 61.0 °F 60.1 °F 97% 29.90 in 8.0 mi NNE 6.9 mph - 0.00 in Rain Light Rain
3:33 PM 61.0 °F 60.1 °F 97% 29.90 in 10.0 mi North 3.5 mph - 0.01 in Rain Light Rain
3:56 PM 61.0 °F 60.1 °F 97% 29.88 in 7.0 mi North 5.8 mph - 0.02 in Rain Light Rain
4:09 PM 61.0 °F 60.1 °F 97% 29.89 in 7.0 mi North 4.6 mph - 0.01 in Rain Light Rain
4:48 PM 61.0 °F 60.1 °F 97% 29.89 in 10.0 mi Variable 3.5 mph - 0.01 in   Overcast
4:56 PM 61.0 °F 60.1 °F 97% 29.88 in 10.0 mi North 4.6 mph - 0.01 in   Overcast
5:25 PM 61.0 °F 61.0 °F 100% 29.90 in 10.0 mi NNW 5.8 mph - N/A   Overcast
5:49 PM 61.0 °F 60.1 °F 97% 29.89 in 10.0 mi NNW 4.6 mph - N/A   Overcast
5:56 PM 61.0 °F 60.1 °F 97% 29.88 in 10.0 mi NNW 5.8 mph - N/A   Overcast
6:13 PM 61.0 °F 60.1 °F 97% 29.89 in 10.0 mi NNW 5.8 mph - N/A   Overcast
6:27 PM 62.1 °F 61.0 °F 96% 29.90 in 10.0 mi NW 4.6 mph - N/A   Overcast
6:56 PM 62.1 °F 60.1 °F 93% 29.88 in 10.0 mi NW 5.8 mph - N/A   Overcast
7:35 PM 61.0 °F 60.1 °F 97% 29.91 in 10.0 mi Calm Calm - N/A   Overcast
7:56 PM 61.0 °F 60.1 °F 97% 29.90 in 10.0 mi NNW 3.5 mph - N/A   Overcast
8:24 PM 61.0 °F 60.1 °F 97% 29.92 in 10.0 mi Calm Calm - N/A   Mostly Cloudy
8:40 PM 61.0 °F 60.1 °F 97% 29.93 in 10.0 mi NNW 3.5 mph - N/A   Mostly Cloudy
8:48 PM 61.0 °F 60.1 °F 97% 29.93 in 10.0 mi NNW 4.6 mph - N/A   Scattered Clouds
8:56 PM 61.0 °F 60.1 °F 97% 29.91 in 10.0 mi Calm Calm - N/A   Partly Cloudy
9:56 PM 60.1 °F 59.0 °F 96% 29.92 in 10.0 mi Calm Calm - N/A   Mostly Cloudy
10:56 PM 59.0 °F 59.0 °F 100% 29.92 in 10.0 mi Calm Calm - N/A   Clear
11:25 PM 59.0 °F 59.0 °F 100% 29.92 in 1.8 mi NW 3.5 mph - N/A   Partly Cloudy
11:32 PM 59.0 °F 59.0 °F 100% 29.92 in 0.8 mi NNW 3.5 mph - N/A   Mist
11:41 PM 59.0 °F 59.0 °F 100% 29.92 in 1.5 mi NW 4.6 mph - N/A   Mostly Cloudy
11:44 PM 59.0 °F 59.0 °F 100% 29.92 in 3.0 mi NNW 3.5 mph - N/A   Mostly Cloudy
11:56 PM 59.0 °F 59.0 °F 100% 29.92 in 4.0 mi Calm Calm - N/A   Overcast